Sao Pedro Do Mar — CUFR8 — position and weather

sailwx.info

Track history (hours):
 
Tides and Currents Weather Stations Pressure Air Temp Water Temp Dewpoint Dewpoint Depression Visibility Wind Speed Wind Dir Waves Ship Positions

Sao Pedro Do Mar

Last reported at 2017-Nov-18 02:32 UTC. Time now 2017-Nov-18 08:33 UTC.
Position N 36°49' W 008°08'.

Length 25 m.

MMSI: 263411770.

Date/timePositionNaut miles runAvg speedWind from/ knotsBaromVisibWave heightAir tempDewpointWater temp
2017-Nov-18 02:32N 36°49' W 008°08'0 2.3
2017-Nov-18 02:27N 36°49' W 008°08'1 2.2
2017-Nov-18 01:59N 36°49' W 008°09'1 2.9
2017-Nov-18 01:30N 36°48' W 008°10'1 2.9
2017-Nov-18 00:59N 36°48' W 008°12'5 2.9
2017-Nov-17 23:23N 36°48' W 008°18'1 3.3
2017-Nov-17 22:59N 36°48' W 008°20'0 0.7
2017-Nov-17 22:21N 36°47' W 008°20'3 2.9
2017-Nov-17 21:14N 36°47' W 008°24'1 3.0
2017-Nov-17 20:59N 36°47' W 008°25'2 3.0
2017-Nov-17 20:18N 36°47' W 008°27'8 0.4
2017-Nov-17 01:19N 36°54' W 008°32'3 8.5
2017-Nov-17 00:57N 36°58' W 008°32'4 8.6
2017-Nov-17 00:29N 37°02' W 008°32'4 8.3
2017-Nov-17 00:00N 37°06' W 008°32'2 4.8
2017-Nov-16 23:29N 37°08' W 008°32'0 0.0
2017-Nov-16 22:58N 37°08' W 008°32'0 0.0
2017-Nov-16 22:31N 37°08' W 008°32'0 0.0
2017-Nov-16 22:00N 37°08' W 008°32'0 0.0
2017-Nov-16 21:30N 37°08' W 008°32'0 0.0
2017-Nov-16 21:00N 37°08' W 008°32'0 0.0
2017-Nov-16 20:30N 37°08' W 008°32'0 0.1
2017-Nov-16 19:59N 37°08' W 008°32'4 8.1
2017-Nov-16 19:31N 37°04' W 008°33'5 9.3
2017-Nov-16 19:00N 37°00' W 008°36'5 9.2
2017-Nov-16 18:30N 36°57' W 008°40'5 9.3
2017-Nov-16 17:58N 36°52' W 008°43'19 1.0
2017-Nov-15 22:52N 36°47' W 008°20'1 1.4
2017-Nov-15 22:03N 36°48' W 008°21'0 2.9
2017-Nov-15 21:58N 36°48' W 008°20'4 3.1
2017-Nov-15 20:32N 36°48' W 008°15'1 3.1
2017-Nov-15 20:04N 36°48' W 008°13'1 3.0
2017-Nov-15 19:53N 36°48' W 008°12'1 3.1
2017-Nov-15 19:30N 36°48' W 008°11'2 2.7
2017-Nov-15 18:52N 36°49' W 008°10'3 6.0
2017-Nov-15 18:20N 36°50' W 008°06'5 0.2
2017-Nov-14 16:52N 36°51' W 008°00'1 3.0
2017-Nov-14 16:24N 36°51' W 008°02'1 2.9
2017-Nov-14 16:00N 36°51' W 008°03'14 1.0
2017-Nov-14 01:54N 36°47' W 008°20'1 2.8
2017-Nov-14 01:23N 36°47' W 008°22'1 2.7
2017-Nov-14 01:00N 36°47' W 008°23'  
2017-Nov-08 02:57N 36°47' W 008°11'  
Track history (hours):
 
Tides and Currents Weather Stations Pressure Air Temp Water Temp Dewpoint Dewpoint Depression Visibility Wind Speed Wind Dir Waves Ship Positions

Sao Pedro Do Mar

Last reported at 2017-Nov-18 02:32 UTC. Time now 2017-Nov-18 08:33 UTC.
Position N 36°49' W 008°08'.

Length 25 m.

MMSI: 263411770.

Date/timePositionNaut miles runAvg speedWind from/ knotsBaromVisibWave heightAir tempDewpointWater temp
2017-Nov-18 02:32N 36°49' W 008°08'0 2.3
2017-Nov-18 02:27N 36°49' W 008°08'1 2.2
2017-Nov-18 01:59N 36°49' W 008°09'1 2.9
2017-Nov-18 01:30N 36°48' W 008°10'1 2.9
2017-Nov-18 00:59N 36°48' W 008°12'5 2.9
2017-Nov-17 23:23N 36°48' W 008°18'1 3.3
2017-Nov-17 22:59N 36°48' W 008°20'0 0.7
2017-Nov-17 22:21N 36°47' W 008°20'3 2.9
2017-Nov-17 21:14N 36°47' W 008°24'1 3.0
2017-Nov-17 20:59N 36°47' W 008°25'2 3.0
2017-Nov-17 20:18N 36°47' W 008°27'8 0.4
2017-Nov-17 01:19N 36°54' W 008°32'3 8.5
2017-Nov-17 00:57N 36°58' W 008°32'4 8.6
2017-Nov-17 00:29N 37°02' W 008°32'4 8.3
2017-Nov-17 00:00N 37°06' W 008°32'2 4.8
2017-Nov-16 23:29N 37°08' W 008°32'0 0.0
2017-Nov-16 22:58N 37°08' W 008°32'0 0.0
2017-Nov-16 22:31N 37°08' W 008°32'0 0.0
2017-Nov-16 22:00N 37°08' W 008°32'0 0.0
2017-Nov-16 21:30N 37°08' W 008°32'0 0.0
2017-Nov-16 21:00N 37°08' W 008°32'0 0.0
2017-Nov-16 20:30N 37°08' W 008°32'0 0.1
2017-Nov-16 19:59N 37°08' W 008°32'4 8.1
2017-Nov-16 19:31N 37°04' W 008°33'5 9.3
2017-Nov-16 19:00N 37°00' W 008°36'5 9.2
2017-Nov-16 18:30N 36°57' W 008°40'5 9.3
2017-Nov-16 17:58N 36°52' W 008°43'19 1.0
2017-Nov-15 22:52N 36°47' W 008°20'1 1.4
2017-Nov-15 22:03N 36°48' W 008°21'0 2.9
2017-Nov-15 21:58N 36°48' W 008°20'4 3.1
2017-Nov-15 20:32N 36°48' W 008°15'1 3.1
2017-Nov-15 20:04N 36°48' W 008°13'1 3.0
2017-Nov-15 19:53N 36°48' W 008°12'1 3.1
2017-Nov-15 19:30N 36°48' W 008°11'2 2.7
2017-Nov-15 18:52N 36°49' W 008°10'3 6.0
2017-Nov-15 18:20N 36°50' W 008°06'5 0.2
2017-Nov-14 16:52N 36°51' W 008°00'1 3.0
2017-Nov-14 16:24N 36°51' W 008°02'1 2.9
2017-Nov-14 16:00N 36°51' W 008°03'14 1.0
2017-Nov-14 01:54N 36°47' W 008°20'1 2.8
2017-Nov-14 01:23N 36°47' W 008°22'1 2.7
2017-Nov-14 01:00N 36°47' W 008°23'  
2017-Nov-08 02:57N 36°47' W 008°11'  

Dump ship's entire track history